createdAt,value
2019-03-04T00:01:47.970Z,59.00
2019-03-04T00:04:16.216Z,59.00
2019-03-04T00:06:44.460Z,59.00
2019-03-04T00:09:12.697Z,59.00
2019-03-04T00:11:40.942Z,59.00
2019-03-04T00:14:09.247Z,59.00
2019-03-04T00:16:39.177Z,58.70
2019-03-04T00:19:07.480Z,58.60
2019-03-04T00:21:35.721Z,58.70
2019-03-04T00:24:04.873Z,58.90
2019-03-04T00:26:33.155Z,58.60
2019-03-04T00:29:04.198Z,58.60
2019-03-04T00:31:32.492Z,58.40
2019-03-04T00:34:00.713Z,58.40
2019-03-04T00:36:28.956Z,58.40
2019-03-04T00:38:57.183Z,58.50
2019-03-04T00:41:25.442Z,58.50
2019-03-04T00:43:53.836Z,58.30
2019-03-04T00:46:22.069Z,58.10
2019-03-04T00:48:50.318Z,57.60
2019-03-04T00:51:18.591Z,58.10
2019-03-04T00:53:46.820Z,58.80
2019-03-04T00:56:15.047Z,58.30
2019-03-04T00:58:43.294Z,57.90
2019-03-04T01:01:11.522Z,57.90
2019-03-04T01:03:39.761Z,58.30
2019-03-04T01:06:08.017Z,57.70
2019-03-04T01:08:36.254Z,57.80
2019-03-04T01:11:05.932Z,57.70
2019-03-04T01:13:34.282Z,57.60
2019-03-04T01:16:02.536Z,57.60
2019-03-04T01:18:30.784Z,57.50
2019-03-04T01:20:59.028Z,57.50
2019-03-04T01:23:27.262Z,57.40
2019-03-04T01:25:55.489Z,57.50
2019-03-04T01:28:23.825Z,57.30
2019-03-04T01:30:52.057Z,57.40
2019-03-04T01:33:20.295Z,57.30
2019-03-04T01:35:48.597Z,57.40
2019-03-04T01:38:16.841Z,57.30
2019-03-04T01:40:45.144Z,57.40
2019-03-04T01:43:13.407Z,57.50
2019-03-04T01:45:41.814Z,57.60
2019-03-04T01:48:10.199Z,57.60
2019-03-04T01:50:38.456Z,57.60
2019-03-04T01:53:06.685Z,57.60
2019-03-04T01:55:35.134Z,57.70
2019-03-04T01:58:03.407Z,58.40
2019-03-04T02:00:31.702Z,57.70
2019-03-04T02:02:59.937Z,57.60
2019-03-04T02:05:29.954Z,57.60
2019-03-04T02:07:58.182Z,57.40
2019-03-04T02:10:26.484Z,57.50
2019-03-04T02:12:54.949Z,57.30
2019-03-04T02:15:23.301Z,57.40
2019-03-04T02:17:51.579Z,57.10
2019-03-04T02:20:19.822Z,57.20
2019-03-04T02:22:48.058Z,56.70
2019-03-04T02:25:18.343Z,56.80
2019-03-04T02:27:49.847Z,56.50
2019-03-04T02:30:21.348Z,56.70
2019-03-04T02:32:49.593Z,56.40
2019-03-04T02:35:17.905Z,56.50
2019-03-04T02:37:46.140Z,56.30
2019-03-04T02:40:14.372Z,56.20
2019-03-04T02:42:42.626Z,55.90
2019-03-04T02:45:14.414Z,55.80
2019-03-04T02:47:43.051Z,55.90
2019-03-04T02:50:11.348Z,55.90
2019-03-04T02:52:39.602Z,56.00
2019-03-04T02:55:08.115Z,55.80
2019-03-04T02:57:36.481Z,55.70
2019-03-04T03:00:10.931Z,55.20
2019-03-04T03:02:39.292Z,54.90
2019-03-04T03:05:08.498Z,54.90
2019-03-04T03:07:36.993Z,54.90
2019-03-04T03:10:08.649Z,54.50
2019-03-04T03:12:36.901Z,55.60
2019-03-04T03:15:10.939Z,54.60
2019-03-04T03:17:39.170Z,55.50
2019-03-04T03:20:12.730Z,54.60
2019-03-04T03:22:40.963Z,54.60
2019-03-04T03:25:11.599Z,54.70
2019-03-04T03:27:40.028Z,54.50
2019-03-04T03:30:19.670Z,54.40
2019-03-04T03:32:47.972Z,54.30
2019-03-04T03:35:16.212Z,54.10
2019-03-04T03:37:44.444Z,54.00
2019-03-04T03:40:17.705Z,54.20
2019-03-04T03:42:47.642Z,54.00
2019-03-04T03:45:16.031Z,54.00
2019-03-04T03:47:44.303Z,53.80
2019-03-04T03:50:16.140Z,53.80
2019-03-04T03:52:44.718Z,53.60
2019-03-04T03:55:14.716Z,54.00
2019-03-04T03:57:43.000Z,53.40
2019-03-04T04:00:20.238Z,53.40
2019-03-04T04:02:48.492Z,53.40
2019-03-04T04:05:18.253Z,53.40
2019-03-04T04:07:46.709Z,53.20
2019-03-04T04:10:18.979Z,52.80
2019-03-04T04:12:47.588Z,52.70
2019-03-04T04:15:18.606Z,52.40
2019-03-04T04:17:47.045Z,51.90
2019-03-04T04:20:15.314Z,52.30
2019-03-04T04:22:43.546Z,52.70
2019-03-04T04:25:12.730Z,52.40
2019-03-04T04:27:41.030Z,52.40
2019-03-04T04:30:11.880Z,52.50
2019-03-04T04:32:40.199Z,52.40
2019-03-04T04:35:08.528Z,52.30
2019-03-04T04:37:36.762Z,52.00
2019-03-04T04:40:08.765Z,52.20
2019-03-04T04:42:36.988Z,51.90
2019-03-04T04:45:06.865Z,51.90
2019-03-04T04:47:35.257Z,52.00
2019-03-04T04:50:11.877Z,52.00
2019-03-04T04:52:41.213Z,51.80
2019-03-04T04:55:09.548Z,51.90
2019-03-04T04:57:37.780Z,51.90
2019-03-04T05:00:09.261Z,52.00
2019-03-04T05:02:37.528Z,52.10
2019-03-04T05:05:07.197Z,51.70
2019-03-04T05:07:35.522Z,52.00
2019-03-04T05:10:15.129Z,51.90
2019-03-04T05:12:44.220Z,52.10
2019-03-04T05:15:14.369Z,51.90
2019-03-04T05:17:45.725Z,52.10
2019-03-04T05:20:19.851Z,52.00
2019-03-04T05:22:48.093Z,52.00
2019-03-04T05:25:18.237Z,51.90
2019-03-04T05:27:46.473Z,52.20
2019-03-04T05:30:19.582Z,51.80
2019-03-04T05:32:47.935Z,52.00
2019-03-04T05:35:16.227Z,51.90
2019-03-04T05:37:44.458Z,51.80
2019-03-04T05:40:19.662Z,51.80
2019-03-04T05:42:48.006Z,52.40
2019-03-04T05:45:17.176Z,51.60
2019-03-04T05:47:45.502Z,51.50
2019-03-04T05:50:18.726Z,51.50
2019-03-04T05:52:46.962Z,51.60
2019-03-04T05:55:15.788Z,51.70
2019-03-04T05:57:44.004Z,51.70
2019-03-04T06:00:18.514Z,51.40
2019-03-04T06:02:46.760Z,50.70
2019-03-04T06:05:15.431Z,51.10
2019-03-04T06:07:45.305Z,50.50
2019-03-04T06:10:13.792Z,51.40
2019-03-04T06:12:42.074Z,51.80
2019-03-04T06:15:12.997Z,51.80
2019-03-04T06:17:41.340Z,51.90
2019-03-04T06:20:11.889Z,52.50
2019-03-04T06:22:40.122Z,52.90
2019-03-04T06:25:11.266Z,53.10
2019-03-04T06:27:39.504Z,53.40
2019-03-04T06:30:13.553Z,53.70
2019-03-04T06:32:41.897Z,53.80
2019-03-04T06:35:15.116Z,54.20
2019-03-04T06:37:43.342Z,54.60
2019-03-04T06:40:13.838Z,54.40
2019-03-04T06:42:42.084Z,54.70
2019-03-04T06:45:12.575Z,54.60
2019-03-04T06:47:40.813Z,54.80
2019-03-04T06:50:28.663Z,54.80
2019-03-04T06:52:59.714Z,54.90
2019-03-04T06:55:55.369Z,55.10
2019-03-04T06:58:23.672Z,55.20
2019-03-04T07:00:53.281Z,55.40
2019-03-04T07:03:21.853Z,55.20
2019-03-04T07:05:50.658Z,55.50
2019-03-04T07:08:40.363Z,55.40
2019-03-04T07:11:08.898Z,55.50
2019-03-04T07:13:37.181Z,55.60
2019-03-04T07:16:05.493Z,55.50
2019-03-04T07:18:33.771Z,55.50
2019-03-04T07:21:02.009Z,55.70
2019-03-04T07:23:30.246Z,55.60
2019-03-04T07:25:58.726Z,55.60
2019-03-04T07:28:28.583Z,55.60
2019-03-04T07:30:56.981Z,55.60
2019-03-04T07:33:25.386Z,55.50
2019-03-04T07:35:53.677Z,55.50
2019-03-04T07:38:25.605Z,55.70
2019-03-04T07:40:53.945Z,55.40
2019-03-04T07:43:22.175Z,55.40
2019-03-04T07:45:50.591Z,55.40
2019-03-04T07:48:18.846Z,55.40
2019-03-04T07:50:48.956Z,55.40
2019-03-04T07:53:19.093Z,55.40
2019-03-04T07:55:47.157Z,55.80
2019-03-04T07:58:15.413Z,55.40
2019-03-04T08:00:43.681Z,55.40
2019-03-04T08:03:12.257Z,55.50
2019-03-04T08:05:40.826Z,55.50
2019-03-04T08:08:11.700Z,55.60
2019-03-04T08:11:16.350Z,55.90
2019-03-04T08:13:48.327Z,55.90
2019-03-04T08:16:16.553Z,56.10
2019-03-04T08:18:44.886Z,56.10
2019-03-04T08:21:13.115Z,56.10
2019-03-04T08:23:41.345Z,56.10
2019-03-04T08:26:09.605Z,56.00
2019-03-04T08:28:37.832Z,56.30
2019-03-04T08:31:06.172Z,56.40
2019-03-04T08:33:34.566Z,56.40
2019-03-04T08:36:02.849Z,56.60
2019-03-04T08:38:31.070Z,56.60
2019-03-04T08:40:59.307Z,56.60
2019-03-04T08:43:27.582Z,56.60
2019-03-04T08:45:55.798Z,56.60
2019-03-04T08:48:24.035Z,56.90
2019-03-04T08:50:52.342Z,57.00
2019-03-04T08:53:20.579Z,57.70
2019-03-04T08:55:48.937Z,57.00
2019-03-04T08:58:17.145Z,56.60
2019-03-04T09:00:45.392Z,56.30
2019-03-04T09:03:15.688Z,56.20
2019-03-04T09:05:43.956Z,56.40
2019-03-04T09:08:12.205Z,56.20
2019-03-04T09:10:42.066Z,56.30
2019-03-04T09:13:10.288Z,56.30
2019-03-04T09:15:38.523Z,56.50
2019-03-04T09:18:07.012Z,56.50
2019-03-04T09:20:35.287Z,56.70
2019-03-04T09:23:03.869Z,57.50
2019-03-04T09:25:45.153Z,57.60
2019-03-04T09:28:13.374Z,57.60
2019-03-04T09:30:41.619Z,57.60
2019-03-04T09:33:10.791Z,57.80
2019-03-04T09:35:39.016Z,58.50
2019-03-04T09:38:07.253Z,57.90
2019-03-04T09:40:35.965Z,57.90
2019-03-04T09:43:05.820Z,58.00
2019-03-04T09:45:38.936Z,58.20
2019-03-04T09:48:04.092Z,58.20
2019-03-04T09:50:33.973Z,58.20
2019-03-04T09:53:02.388Z,58.20
2019-03-04T09:55:30.673Z,58.40
2019-03-04T09:57:59.109Z,58.50
2019-03-04T10:00:52.258Z,58.80
2019-03-04T10:03:41.616Z,58.70
2019-03-04T10:06:31.705Z,59.00
2019-03-04T10:09:19.724Z,59.10
2019-03-04T10:12:06.047Z,59.20
2019-03-04T10:15:08.539Z,59.10
2019-03-04T10:17:44.505Z,58.20
2019-03-04T10:20:16.589Z,58.30
2019-03-04T10:23:10.801Z,58.20
2019-03-04T10:25:57.585Z,58.50
2019-03-04T10:29:03.764Z,58.30
2019-03-04T10:31:47.473Z,58.30
2019-03-04T10:34:44.861Z,58.30
2019-03-04T10:37:19.340Z,58.70
2019-03-04T10:39:53.893Z,58.10
2019-03-04T10:42:42.093Z,58.20
2019-03-04T10:45:34.244Z,58.10
2019-03-04T10:48:04.184Z,58.10
2019-03-04T10:50:32.597Z,58.20
2019-03-04T10:53:00.845Z,58.20
2019-03-04T10:55:30.351Z,58.30
2019-03-04T10:57:58.613Z,58.20
2019-03-04T11:00:26.871Z,58.10
2019-03-04T11:02:55.213Z,58.10
2019-03-04T11:05:23.453Z,58.10
2019-03-04T11:07:51.745Z,58.10
2019-03-04T11:10:19.973Z,58.20
2019-03-04T11:12:48.397Z,58.20
2019-03-04T11:15:26.203Z,58.10
2019-03-04T11:17:54.714Z,58.00
2019-03-04T11:20:23.037Z,57.80
2019-03-04T11:22:51.584Z,57.90
2019-03-04T11:25:21.443Z,57.80
2019-03-04T11:27:49.705Z,57.70
2019-03-04T11:30:28.911Z,57.60
2019-03-04T11:35:39.633Z,57.50
2019-03-04T11:38:11.145Z,57.50
2019-03-04T11:40:41.015Z,57.40
2019-03-04T11:43:09.256Z,57.40
2019-03-04T11:45:37.654Z,57.30
2019-03-04T11:48:05.939Z,58.10
2019-03-04T11:50:36.106Z,57.50
2019-03-04T11:53:05.034Z,57.60
2019-03-04T11:55:33.362Z,57.80
2019-03-04T11:58:01.761Z,57.20
2019-03-04T12:00:34.307Z,57.10
2019-03-04T12:03:02.536Z,56.80
2019-03-04T12:05:30.822Z,57.30
2019-03-04T12:07:59.049Z,57.50
2019-03-04T12:10:27.513Z,57.50
2019-03-04T12:12:55.765Z,57.70
2019-03-04T12:15:25.074Z,57.30
2019-03-04T12:17:53.429Z,56.70
2019-03-04T12:20:21.765Z,56.40
2019-03-04T12:22:50.068Z,56.20
2019-03-04T12:25:19.352Z,55.20
2019-03-04T12:27:47.676Z,55.60
2019-03-04T12:30:20.873Z,55.10
2019-03-04T12:32:49.115Z,55.40
2019-03-04T12:35:17.530Z,55.40
2019-03-04T12:37:46.729Z,55.90
2019-03-04T12:40:20.093Z,55.40
2019-03-04T12:42:48.437Z,55.30
2019-03-04T12:45:17.912Z,55.50
2019-03-04T12:47:46.139Z,55.30
2019-03-04T12:50:30.902Z,55.40
2019-03-04T12:52:59.204Z,55.10
2019-03-04T12:55:29.096Z,55.10
2019-03-04T12:57:57.462Z,55.10
2019-03-04T13:00:29.599Z,55.00
2019-03-04T13:02:58.261Z,54.90
2019-03-04T13:05:26.562Z,54.60
2019-03-04T13:07:54.813Z,54.60
2019-03-04T13:10:23.126Z,54.30
2019-03-04T13:12:53.113Z,54.30
2019-03-04T13:15:35.115Z,54.30
2019-03-04T13:18:11.725Z,53.80
2019-03-04T13:20:40.025Z,53.70
2019-03-04T13:23:08.273Z,53.60
2019-03-04T13:25:36.514Z,53.50
2019-03-04T13:28:08.655Z,53.50
2019-03-04T13:30:38.179Z,53.80
2019-03-04T13:33:11.435Z,53.70
2019-03-04T13:35:44.048Z,53.60
2019-03-04T13:38:12.282Z,53.80
2019-03-04T13:40:40.601Z,52.90
2019-03-04T13:43:08.904Z,53.60
2019-03-04T13:45:37.145Z,53.60
2019-03-04T13:48:06.187Z,52.90
2019-03-04T13:50:36.159Z,52.90
2019-03-04T13:53:04.478Z,52.10
2019-03-04T13:55:32.732Z,52.30
2019-03-04T13:58:00.966Z,52.60
2019-03-04T14:00:35.919Z,52.40
2019-03-04T14:03:05.168Z,52.20
2019-03-04T14:05:33.493Z,51.70
2019-03-04T14:08:01.851Z,51.90
2019-03-04T14:10:35.893Z,51.60
2019-03-04T14:13:04.130Z,52.00
2019-03-04T14:15:38.160Z,52.30
2019-03-04T14:18:06.525Z,52.10
2019-03-04T14:20:34.785Z,52.40
2019-03-04T14:23:03.121Z,52.40
2019-03-04T14:25:31.369Z,52.60
2019-03-04T14:27:59.608Z,52.20
2019-03-04T14:30:27.841Z,52.40
2019-03-04T14:32:56.207Z,52.40
2019-03-04T14:35:24.494Z,52.40
2019-03-04T14:37:52.725Z,52.70
2019-03-04T14:40:21.721Z,52.80
2019-03-04T14:42:49.957Z,52.60
2019-03-04T14:45:23.721Z,52.40
2019-03-04T14:47:51.970Z,52.90
2019-03-04T14:50:21.084Z,52.00
2019-03-04T14:52:49.340Z,51.60
2019-03-04T14:55:23.282Z,51.70
2019-03-04T14:57:51.525Z,51.60
2019-03-04T15:00:34.816Z,51.40
2019-03-04T15:03:03.061Z,51.40
2019-03-04T15:05:31.301Z,51.70
2019-03-04T15:07:59.542Z,52.40
2019-03-04T15:10:27.786Z,51.90
2019-03-04T15:12:56.029Z,51.40
2019-03-04T15:15:32.243Z,51.20
2019-03-04T15:18:00.501Z,51.20
2019-03-04T15:20:29.873Z,51.30
2019-03-04T15:22:59.398Z,51.30
2019-03-04T15:25:38.660Z,51.20
2019-03-04T15:28:12.551Z,51.60
2019-03-04T15:30:42.220Z,51.60
2019-03-04T15:33:17.434Z,51.80
2019-03-04T15:35:40.448Z,51.70
2019-03-04T15:38:08.695Z,51.20
2019-03-04T15:40:36.919Z,50.90
2019-03-04T15:43:05.631Z,51.10
2019-03-04T15:45:34.087Z,50.40
2019-03-04T15:48:02.320Z,51.30
2019-03-04T15:50:30.668Z,51.20
2019-03-04T15:52:59.269Z,51.20
2019-03-04T15:55:27.833Z,51.30
2019-03-04T15:57:56.124Z,51.50
2019-03-04T16:00:24.365Z,51.50
2019-03-04T16:02:52.681Z,51.40
2019-03-04T16:05:20.933Z,51.30
2019-03-04T16:07:49.174Z,51.20
2019-03-04T16:10:23.913Z,51.50
2019-03-04T16:12:52.152Z,51.20
2019-03-04T16:15:20.662Z,51.10
2019-03-04T16:17:48.895Z,50.90
2019-03-04T16:20:19.591Z,51.10
2019-03-04T16:22:48.371Z,51.20
2019-03-04T16:25:16.601Z,50.80
2019-03-04T16:27:44.998Z,50.80
2019-03-04T16:30:21.893Z,50.40
2019-03-04T16:33:09.598Z,50.60
2019-03-04T16:35:37.827Z,50.00
2019-03-04T16:38:06.065Z,50.10
2019-03-04T16:40:34.313Z,49.90
2019-03-04T16:43:02.619Z,50.20
2019-03-04T16:45:30.845Z,50.00
2019-03-04T16:47:59.101Z,50.20
2019-03-04T16:50:30.604Z,50.00
2019-03-04T16:53:04.808Z,49.70
2019-03-04T16:55:34.708Z,49.90
2019-03-04T16:58:02.932Z,49.90
2019-03-04T17:00:31.157Z,49.90
2019-03-04T17:02:59.421Z,49.90
2019-03-04T17:05:28.328Z,50.10
2019-03-04T17:07:56.571Z,50.30
2019-03-04T17:10:25.848Z,50.20
2019-03-04T17:12:55.795Z,50.30
2019-03-04T17:15:24.301Z,50.10
2019-03-04T17:17:52.580Z,50.30
2019-03-04T17:20:20.835Z,50.30
2019-03-04T17:22:49.181Z,50.00
2019-03-04T17:25:21.597Z,50.10
2019-03-04T17:27:49.824Z,50.00
2019-03-04T17:30:19.209Z,50.20
2019-03-04T17:32:47.475Z,50.20
2019-03-04T17:35:22.262Z,50.20
2019-03-04T17:37:50.506Z,50.10
2019-03-04T17:40:26.937Z,50.10
2019-03-04T17:42:55.167Z,50.30
2019-03-04T17:45:24.664Z,50.30
2019-03-04T17:47:53.332Z,50.50
2019-03-04T17:50:42.349Z,50.60
2019-03-04T17:53:15.650Z,50.60
2019-03-04T17:55:44.932Z,50.50
2019-03-04T17:58:13.150Z,50.70
2019-03-04T18:00:43.054Z,50.70
2019-03-04T18:03:11.277Z,50.80
2019-03-04T18:05:39.518Z,50.80
2019-03-04T18:08:08.239Z,50.80
2019-03-04T18:10:36.485Z,50.80
2019-03-04T18:13:08.003Z,51.00
2019-03-04T18:15:38.389Z,50.90
2019-03-04T18:18:08.405Z,51.00
2019-03-04T18:20:36.654Z,51.70
2019-03-04T18:23:05.037Z,51.00
2019-03-04T18:25:45.091Z,51.00
2019-03-04T18:28:40.722Z,51.10
2019-03-04T18:31:21.762Z,51.10
2019-03-04T18:34:11.792Z,51.10
2019-03-04T18:36:43.461Z,51.20
2019-03-04T18:39:26.574Z,51.10
2019-03-04T18:42:04.323Z,51.20
2019-03-04T18:44:41.512Z,51.20
2019-03-04T18:47:16.002Z,51.30
2019-03-04T18:49:44.771Z,51.90
2019-03-04T18:52:13.607Z,51.20
2019-03-04T18:54:41.929Z,51.40
2019-03-04T18:57:10.172Z,51.30
2019-03-04T18:59:38.433Z,51.40
2019-03-04T19:02:06.753Z,51.40
2019-03-04T19:04:36.618Z,51.40
2019-03-04T19:07:05.073Z,51.60
2019-03-04T19:09:33.310Z,51.50
2019-03-04T19:12:01.629Z,51.50
2019-03-04T19:14:29.886Z,51.60
2019-03-04T19:16:58.126Z,51.60
2019-03-04T19:19:26.412Z,51.80
2019-03-04T19:21:54.663Z,51.90
2019-03-04T19:24:25.382Z,52.10
2019-03-04T19:26:53.959Z,52.20
2019-03-04T19:29:22.205Z,52.10
2019-03-04T19:31:50.473Z,52.10
2019-03-04T19:34:18.706Z,52.20
2019-03-04T19:36:47.027Z,52.30
2019-03-04T19:39:15.258Z,52.30
2019-03-04T19:41:43.597Z,52.50
2019-03-04T19:44:11.969Z,52.40
2019-03-04T19:46:40.203Z,52.60
2019-03-04T19:49:08.442Z,52.60
2019-03-04T19:51:36.819Z,52.60
2019-03-04T19:54:05.049Z,52.70
2019-03-04T19:56:33.286Z,52.70
2019-03-04T19:59:01.621Z,52.80
2019-03-04T20:01:29.857Z,52.70
2019-03-04T20:03:58.093Z,52.80
2019-03-04T20:06:26.359Z,52.70
2019-03-04T20:08:54.635Z,52.70
2019-03-04T20:14:18.168Z,52.80
2019-03-04T20:16:46.494Z,52.90
2019-03-04T20:19:14.778Z,53.10
2019-03-04T20:21:43.038Z,53.00
2019-03-04T20:24:11.390Z,52.90
2019-03-04T20:26:39.638Z,53.00
2019-03-04T20:29:08.015Z,53.10
2019-03-04T20:31:36.257Z,53.10
2019-03-04T20:34:05.909Z,53.10
2019-03-04T20:36:35.931Z,53.40
2019-03-04T20:39:09.103Z,53.30
2019-03-04T20:41:37.559Z,54.10
2019-03-04T20:44:05.824Z,53.30
2019-03-04T20:46:34.339Z,53.50
2019-03-04T20:49:04.318Z,53.40
2019-03-04T20:51:32.633Z,53.60
2019-03-04T20:54:00.893Z,53.70
2019-03-04T20:56:29.217Z,53.60
2019-03-04T20:58:57.461Z,53.70
2019-03-04T21:01:25.743Z,53.90
2019-03-04T21:03:54.047Z,53.80
2019-03-04T21:06:22.381Z,54.00
2019-03-04T21:08:50.611Z,54.00
2019-03-04T21:11:18.861Z,54.00
2019-03-04T21:13:47.276Z,54.20
2019-03-04T21:16:15.627Z,54.00
2019-03-04T21:18:43.925Z,54.20
2019-03-04T21:21:12.246Z,54.10
2019-03-04T21:23:40.559Z,54.10
2019-03-04T21:26:20.989Z,54.10
2019-03-04T21:29:29.693Z,54.10
2019-03-04T21:32:07.837Z,54.00
2019-03-04T21:34:45.073Z,54.00
2019-03-04T21:37:16.581Z,54.20
2019-03-04T21:39:48.425Z,54.30
2019-03-04T21:42:22.635Z,54.20
2019-03-04T21:45:03.278Z,54.30
2019-03-04T21:47:35.079Z,54.30
2019-03-04T21:50:04.483Z,54.10
2019-03-04T21:52:39.574Z,54.10
2019-03-04T21:55:17.276Z,54.20
2019-03-04T21:57:48.376Z,54.20
2019-03-04T22:00:23.741Z,54.20
2019-03-04T22:02:58.381Z,54.30
2019-03-04T22:05:28.303Z,54.20
2019-03-04T22:07:56.548Z,54.20
2019-03-04T22:10:24.785Z,54.30
2019-03-04T22:12:53.031Z,54.30
2019-03-04T22:15:21.276Z,54.30
2019-03-04T22:17:49.518Z,54.10
2019-03-04T22:20:17.906Z,54.20
2019-03-04T22:22:46.150Z,54.40
2019-03-04T22:25:14.855Z,54.20
2019-03-04T22:27:43.239Z,54.20
2019-03-04T22:30:16.473Z,54.10
2019-03-04T22:32:44.715Z,54.10
2019-03-04T22:35:17.229Z,54.10
2019-03-04T22:37:45.414Z,54.30
2019-03-04T22:40:19.519Z,53.80
2019-03-04T22:42:47.832Z,54.20
2019-03-04T22:45:20.494Z,54.30
2019-03-04T22:47:50.263Z,54.20
2019-03-04T22:50:22.449Z,54.30
2019-03-04T22:52:50.971Z,54.30
2019-03-04T22:55:40.784Z,54.20
2019-03-04T22:58:12.027Z,54.20
2019-03-04T23:00:54.111Z,54.20
2019-03-04T23:03:24.904Z,54.10
2019-03-04T23:05:58.450Z,54.70
2019-03-04T23:08:26.698Z,54.00
2019-03-04T23:10:54.945Z,54.00
2019-03-04T23:13:43.920Z,53.90
2019-03-04T23:16:14.667Z,54.00
2019-03-04T23:18:42.891Z,54.00
2019-03-04T23:21:14.870Z,53.90
2019-03-04T23:23:43.302Z,54.00
2019-03-04T23:26:17.295Z,54.00
2019-03-04T23:28:45.798Z,54.00
2019-03-04T23:31:14.085Z,54.00
2019-03-04T23:33:42.334Z,54.00
2019-03-04T23:36:13.402Z,54.10
2019-03-04T23:38:41.942Z,54.10
2019-03-04T23:41:10.180Z,54.10
2019-03-04T23:43:38.670Z,54.20
2019-03-04T23:46:06.898Z,54.20
2019-03-04T23:48:36.766Z,54.10
2019-03-04T23:51:05.051Z,54.10
2019-03-04T23:53:33.317Z,54.10
2019-03-04T23:56:04.263Z,54.20
2019-03-04T23:58:32.693Z,54.10
